createdAt,value
2017-09-01T00:01:36.282Z,90.80
2017-09-01T00:04:02.338Z,91.00
2017-09-01T00:06:28.377Z,91.00
2017-09-01T00:08:54.392Z,90.90
2017-09-01T00:11:20.457Z,91.00
2017-09-01T00:13:46.530Z,91.10
2017-09-01T00:16:12.576Z,91.20
2017-09-01T00:18:38.598Z,91.20
2017-09-01T00:21:04.649Z,91.10
2017-09-01T00:23:30.725Z,91.20
2017-09-01T00:25:56.801Z,91.20
2017-09-01T00:28:22.865Z,91.00
2017-09-01T00:30:48.898Z,91.00
2017-09-01T00:33:14.966Z,91.20
2017-09-01T00:35:40.993Z,91.20
2017-09-01T00:38:07.059Z,91.20
2017-09-01T00:40:33.104Z,91.30
2017-09-01T00:42:59.178Z,91.30
2017-09-01T00:45:25.231Z,91.40
2017-09-01T00:47:51.264Z,91.20
2017-09-01T00:50:17.309Z,91.30
2017-09-01T00:52:43.372Z,91.50
2017-09-01T00:55:09.403Z,91.10
2017-09-01T00:57:35.489Z,91.00
2017-09-01T01:00:01.532Z,91.10
2017-09-01T01:02:27.596Z,91.30
2017-09-01T01:04:53.688Z,91.50
2017-09-01T01:07:19.734Z,91.60
2017-09-01T01:09:45.774Z,91.60
2017-09-01T01:12:11.805Z,91.40
2017-09-01T01:14:37.853Z,91.50
2017-09-01T01:17:03.904Z,91.50
2017-09-01T01:19:29.970Z,91.60
2017-09-01T01:21:56.010Z,91.70
2017-09-01T01:24:22.050Z,91.90
2017-09-01T01:26:48.093Z,92.10
2017-09-01T01:29:14.141Z,91.60
2017-09-01T01:31:40.165Z,91.70
2017-09-01T01:34:06.209Z,91.80
2017-09-01T01:36:32.300Z,91.80
2017-09-01T01:38:58.349Z,91.80
2017-09-01T01:41:24.387Z,91.70
2017-09-01T01:43:50.437Z,91.80
2017-09-01T01:46:16.489Z,91.50
2017-09-01T01:48:42.528Z,91.70
2017-09-01T01:51:08.577Z,91.50
2017-09-01T01:53:34.610Z,91.70
2017-09-01T01:56:00.672Z,91.60
2017-09-01T01:58:26.701Z,91.40
2017-09-01T02:00:52.762Z,91.70
2017-09-01T02:03:18.810Z,91.50
2017-09-01T02:05:44.901Z,91.50
2017-09-01T02:08:10.947Z,91.50
2017-09-01T02:10:37.017Z,91.50
2017-09-01T02:13:03.197Z,91.60
2017-09-01T02:15:29.231Z,91.70
2017-09-01T02:17:55.284Z,91.80
2017-09-01T02:20:21.303Z,91.80
2017-09-01T02:22:47.330Z,91.90
2017-09-01T02:25:13.360Z,91.90
2017-09-01T02:27:39.418Z,92.10
2017-09-01T02:30:05.445Z,92.10
2017-09-01T02:32:31.526Z,91.90
2017-09-01T02:34:57.570Z,91.90
2017-09-01T02:37:23.645Z,91.90
2017-09-01T02:39:49.726Z,92.00
2017-09-01T02:42:15.769Z,92.10
2017-09-01T02:44:41.852Z,92.00
2017-09-01T02:47:07.933Z,91.90
2017-09-01T02:49:33.995Z,91.90
2017-09-01T02:52:00.038Z,91.90
2017-09-01T02:54:26.077Z,92.30
2017-09-01T02:56:52.115Z,92.00
2017-09-01T02:59:18.174Z,92.10
2017-09-01T03:01:44.205Z,92.20
2017-09-01T03:04:10.228Z,92.20
2017-09-01T03:06:36.314Z,92.30
2017-09-01T03:09:02.368Z,92.40
2017-09-01T03:11:28.414Z,92.30
2017-09-01T03:13:54.489Z,92.40
2017-09-01T03:16:20.553Z,92.60
2017-09-01T03:18:46.574Z,92.30
2017-09-01T03:21:12.609Z,92.30
2017-09-01T03:23:38.653Z,92.50
2017-09-01T03:26:04.678Z,92.40
2017-09-01T03:28:30.703Z,92.30
2017-09-01T03:30:56.742Z,92.30
2017-09-01T03:33:22.769Z,92.50
2017-09-01T03:35:48.781Z,92.50
2017-09-01T03:38:14.880Z,92.50
2017-09-01T03:40:40.890Z,92.70
2017-09-01T03:43:06.957Z,92.60
2017-09-01T03:45:33.014Z,92.80
2017-09-01T03:47:59.089Z,92.50
2017-09-01T03:50:25.134Z,92.30
2017-09-01T03:52:51.185Z,92.30
2017-09-01T03:55:17.228Z,92.60
2017-09-01T03:57:43.303Z,92.70
2017-09-01T04:00:09.357Z,92.60
2017-09-01T04:02:35.419Z,92.70
2017-09-01T04:05:01.470Z,92.70
2017-09-01T04:07:27.562Z,92.90
2017-09-01T04:09:53.597Z,92.80
2017-09-01T04:12:19.717Z,92.70
2017-09-01T04:14:45.793Z,92.90
2017-09-01T04:17:11.873Z,92.80
2017-09-01T04:19:37.954Z,93.10
2017-09-01T04:22:03.978Z,93.10
2017-09-01T04:24:30.056Z,93.00
2017-09-01T04:26:56.092Z,93.10
2017-09-01T04:29:22.255Z,93.30
2017-09-01T04:31:48.304Z,93.30
2017-09-01T04:34:14.346Z,93.30
2017-09-01T04:36:40.385Z,93.20
2017-09-01T04:39:06.457Z,93.30
2017-09-01T04:41:32.648Z,93.20
2017-09-01T04:43:58.814Z,93.10
2017-09-01T04:46:24.833Z,93.20
2017-09-01T04:48:50.864Z,93.00
2017-09-01T04:51:16.890Z,92.90
2017-09-01T04:53:42.920Z,92.80
2017-09-01T04:56:08.978Z,92.90
2017-09-01T04:58:35.057Z,93.10
2017-09-01T05:01:01.097Z,93.10
2017-09-01T05:03:27.133Z,93.10
2017-09-01T05:05:53.229Z,93.10
2017-09-01T05:08:19.311Z,93.00
2017-09-01T05:10:45.380Z,93.00
2017-09-01T05:13:11.462Z,93.10
2017-09-01T05:15:37.534Z,92.80
2017-09-01T05:18:04.329Z,92.90
2017-09-01T05:20:30.364Z,92.80
2017-09-01T05:22:56.412Z,92.90
2017-09-01T05:25:22.509Z,92.80
2017-09-01T05:27:48.545Z,92.70
2017-09-01T05:30:14.623Z,93.10
2017-09-01T05:32:40.685Z,92.50
2017-09-01T05:35:06.737Z,92.60
2017-09-01T05:37:32.831Z,92.70
2017-09-01T05:39:58.863Z,92.70
2017-09-01T05:42:24.900Z,92.70
2017-09-01T05:44:50.926Z,93.00
2017-09-01T05:47:16.975Z,92.80
2017-09-01T05:49:42.990Z,92.60
2017-09-01T05:52:09.022Z,92.70
2017-09-01T05:54:35.060Z,92.80
2017-09-01T05:57:01.101Z,92.60
2017-09-01T05:59:27.121Z,92.60
2017-09-01T06:01:53.142Z,92.50
2017-09-01T06:04:19.185Z,92.50
2017-09-01T06:06:45.217Z,92.40
2017-09-01T06:09:11.249Z,92.50
2017-09-01T06:11:37.312Z,92.30
2017-09-01T06:14:03.378Z,92.20
2017-09-01T06:16:29.394Z,92.10
2017-09-01T06:18:55.441Z,92.20
2017-09-01T06:21:21.473Z,92.20
2017-09-01T06:23:47.529Z,91.80
2017-09-01T06:26:13.596Z,91.60
2017-09-01T06:28:39.640Z,91.30
2017-09-01T06:31:05.746Z,91.50
2017-09-01T06:33:31.809Z,91.60
2017-09-01T06:35:57.833Z,91.30
2017-09-01T06:38:23.858Z,91.20
2017-09-01T06:40:49.905Z,91.20
2017-09-01T06:43:15.968Z,90.80
2017-09-01T06:45:42.045Z,91.20
2017-09-01T06:48:08.115Z,91.20
2017-09-01T06:50:34.153Z,90.70
2017-09-01T06:53:00.177Z,90.70
2017-09-01T06:55:26.217Z,90.70
2017-09-01T06:57:52.237Z,90.70
2017-09-01T07:00:25.105Z,90.20
2017-09-01T07:02:51.192Z,90.30
2017-09-01T07:05:17.252Z,90.30
2017-09-01T07:07:43.277Z,90.00
2017-09-01T07:10:09.370Z,89.40
2017-09-01T07:12:35.473Z,89.50
2017-09-01T07:15:01.555Z,89.10
2017-09-01T07:17:27.587Z,88.10
2017-09-01T07:19:53.648Z,87.70
2017-09-01T07:22:19.692Z,88.00
2017-09-01T07:24:45.817Z,87.20
2017-09-01T07:27:11.865Z,86.60
2017-09-01T07:29:37.890Z,86.20
2017-09-01T07:32:03.945Z,84.70
2017-09-01T07:34:29.990Z,84.60
2017-09-01T07:36:56.060Z,83.70
2017-09-01T07:39:22.129Z,83.30
2017-09-01T07:41:48.218Z,82.50
2017-09-01T07:44:21.080Z,82.10
2017-09-01T07:46:47.120Z,82.30
2017-09-01T07:49:13.204Z,81.40
2017-09-01T07:51:39.268Z,80.90
2017-09-01T07:54:05.350Z,80.90
2017-09-01T07:56:31.401Z,78.90
2017-09-01T07:58:57.426Z,80.20
2017-09-01T08:01:23.465Z,79.60
2017-09-01T08:03:49.485Z,78.30
2017-09-01T08:06:15.513Z,79.60
2017-09-01T08:08:41.596Z,79.00
2017-09-01T08:11:07.642Z,78.90
2017-09-01T08:13:33.718Z,77.70
2017-09-01T08:15:59.781Z,76.60
2017-09-01T08:18:25.834Z,76.70
2017-09-01T08:20:51.866Z,75.50
2017-09-01T08:23:17.883Z,75.60
2017-09-01T08:25:43.921Z,75.60
2017-09-01T08:28:09.993Z,74.60
2017-09-01T08:30:36.045Z,75.60
2017-09-01T08:33:02.096Z,75.50
2017-09-01T08:35:28.168Z,74.50
2017-09-01T08:37:54.173Z,74.50
2017-09-01T08:40:20.206Z,75.30
2017-09-01T08:42:46.222Z,72.90
2017-09-01T08:45:12.248Z,71.80
2017-09-01T08:47:38.289Z,71.50
2017-09-01T08:50:04.348Z,72.80
2017-09-01T08:52:30.435Z,71.30
2017-09-01T08:54:56.488Z,68.90
2017-09-01T08:57:22.538Z,69.80
2017-09-01T08:59:48.549Z,67.50
2017-09-01T09:02:14.573Z,70.10
2017-09-01T09:04:40.596Z,67.80
2017-09-01T09:07:06.670Z,67.10
2017-09-01T09:09:32.729Z,68.40
2017-09-01T09:11:58.749Z,68.20
2017-09-01T09:14:24.778Z,66.40
2017-09-01T09:16:50.814Z,68.70
2017-09-01T09:19:16.829Z,68.80
2017-09-01T09:21:42.873Z,67.80
2017-09-01T09:24:08.917Z,66.00
2017-09-01T09:26:34.953Z,64.70
2017-09-01T09:29:01.000Z,63.00
2017-09-01T09:31:27.049Z,63.90
2017-09-01T09:33:53.071Z,64.20
2017-09-01T09:36:19.096Z,63.60
2017-09-01T09:38:45.144Z,61.20
2017-09-01T09:41:11.166Z,57.20
2017-09-01T09:43:37.201Z,57.70
2017-09-01T09:46:03.228Z,58.40
2017-09-01T09:48:29.281Z,57.40
2017-09-01T09:50:55.302Z,61.40
2017-09-01T09:53:21.301Z,59.40
2017-09-01T09:55:47.309Z,60.60
2017-09-01T09:58:13.324Z,60.30
2017-09-01T10:00:39.373Z,63.00
2017-09-01T10:03:05.426Z,60.30
2017-09-01T10:05:31.471Z,55.50
2017-09-01T10:07:57.539Z,55.90
2017-09-01T10:10:23.569Z,54.70
2017-09-01T10:12:49.597Z,58.50
2017-09-01T10:15:15.639Z,51.90
2017-09-01T10:17:41.648Z,54.10
2017-09-01T10:20:07.688Z,51.40
2017-09-01T10:22:33.741Z,50.30
2017-09-01T10:24:59.784Z,51.40
2017-09-01T10:27:25.828Z,53.10
2017-09-01T10:29:51.871Z,52.30
2017-09-01T10:32:17.924Z,51.50
2017-09-01T10:34:43.976Z,51.00
2017-09-01T10:37:10.009Z,47.30
2017-09-01T10:39:36.037Z,48.40
2017-09-01T10:42:02.072Z,44.40
2017-09-01T10:44:28.102Z,44.70
2017-09-01T10:46:54.145Z,46.80
2017-09-01T10:49:21.129Z,49.00
2017-09-01T10:51:59.364Z,46.50
2017-09-01T10:54:37.657Z,46.80
2017-09-01T10:57:16.074Z,45.30
2017-09-01T10:59:42.058Z,43.40
2017-09-01T11:02:08.077Z,42.80
2017-09-01T11:04:34.133Z,43.10
2017-09-01T11:07:00.165Z,44.40
2017-09-01T11:09:26.185Z,40.40
2017-09-01T11:11:52.212Z,44.70
2017-09-01T11:14:18.244Z,40.40
2017-09-01T11:16:44.249Z,41.90
2017-09-01T11:19:16.457Z,40.60
2017-09-01T11:21:48.773Z,41.30
2017-09-01T11:24:20.908Z,43.20
2017-09-01T11:26:46.931Z,40.10
2017-09-01T11:29:12.993Z,39.40
2017-09-01T11:31:39.018Z,40.70
2017-09-01T11:34:05.065Z,43.40
2017-09-01T11:36:31.115Z,44.30
2017-09-01T11:38:57.153Z,46.50
2017-09-01T11:41:23.200Z,46.80
2017-09-01T11:43:49.214Z,45.80
2017-09-01T11:46:15.253Z,41.80
2017-09-01T11:48:41.271Z,43.40
2017-09-01T11:51:07.337Z,42.70
2017-09-01T11:53:33.397Z,44.70
2017-09-01T11:55:59.472Z,45.60
2017-09-01T11:58:25.497Z,46.00
2017-09-01T12:00:51.521Z,46.10
2017-09-01T12:03:17.570Z,47.20
2017-09-01T12:05:43.581Z,49.50
2017-09-01T12:08:09.598Z,45.50
2017-09-01T12:10:35.625Z,40.60
2017-09-01T12:13:01.693Z,40.80
2017-09-01T12:15:27.738Z,41.20
2017-09-01T12:17:53.793Z,37.30
2017-09-01T12:20:19.841Z,35.80
2017-09-01T12:22:45.877Z,41.00
2017-09-01T12:25:11.910Z,38.30
2017-09-01T12:27:37.934Z,39.30
2017-09-01T12:30:04.006Z,40.30
2017-09-01T12:32:30.026Z,42.50
2017-09-01T12:34:56.090Z,42.30
2017-09-01T12:37:22.114Z,43.10
2017-09-01T12:39:48.175Z,41.80
2017-09-01T12:42:14.237Z,45.70
2017-09-01T12:44:40.289Z,42.50
2017-09-01T12:47:06.338Z,46.00
2017-09-01T12:49:32.417Z,47.30
2017-09-01T12:51:58.492Z,48.90
2017-09-01T12:54:24.541Z,51.70
2017-09-01T12:56:50.566Z,51.50
2017-09-01T12:59:16.601Z,48.80
2017-09-01T13:01:42.630Z,50.20
2017-09-01T13:04:08.685Z,50.50
2017-09-01T13:06:34.729Z,52.20
2017-09-01T13:09:00.745Z,51.70
2017-09-01T13:11:26.785Z,50.60
2017-09-01T13:13:52.821Z,49.50
2017-09-01T13:16:18.850Z,51.50
2017-09-01T13:18:44.849Z,48.50
2017-09-01T13:21:10.861Z,49.00
2017-09-01T13:23:36.881Z,50.80
2017-09-01T13:26:02.906Z,49.10
2017-09-01T13:28:28.933Z,47.60
2017-09-01T13:30:55.001Z,48.00
2017-09-01T13:33:21.033Z,47.50
2017-09-01T13:35:47.042Z,44.80
2017-09-01T13:38:13.065Z,47.40
2017-09-01T13:40:39.081Z,44.60
2017-09-01T13:43:05.138Z,44.30
2017-09-01T13:45:31.154Z,46.20
2017-09-01T13:47:57.190Z,46.70
2017-09-01T13:50:23.229Z,47.40
2017-09-01T13:52:49.268Z,48.70
2017-09-01T13:55:15.300Z,50.50
2017-09-01T13:57:41.345Z,50.70
2017-09-01T14:00:07.399Z,50.60
2017-09-01T14:02:33.409Z,50.10
2017-09-01T14:04:59.449Z,52.50
2017-09-01T14:07:25.455Z,54.00
2017-09-01T14:09:51.484Z,54.40
2017-09-01T14:12:17.546Z,53.80
2017-09-01T14:14:43.621Z,55.30
2017-09-01T14:17:09.645Z,55.50
2017-09-01T14:19:35.689Z,56.10
2017-09-01T14:22:01.721Z,56.80
2017-09-01T14:24:27.735Z,55.70
2017-09-01T14:26:53.785Z,57.20
2017-09-01T14:29:19.853Z,57.00
2017-09-01T14:31:46.700Z,55.00
2017-09-01T14:34:12.725Z,55.90
2017-09-01T14:36:38.802Z,55.40
2017-09-01T14:39:04.869Z,57.30
2017-09-01T14:41:30.906Z,57.70
2017-09-01T14:43:56.929Z,57.40
2017-09-01T14:46:22.957Z,56.80
2017-09-01T14:48:48.998Z,58.00
2017-09-01T14:51:15.043Z,59.70
2017-09-01T14:53:41.101Z,58.90
2017-09-01T14:56:07.140Z,59.00
2017-09-01T14:58:33.184Z,58.50
2017-09-01T15:00:59.207Z,57.30
2017-09-01T15:03:25.230Z,56.70
2017-09-01T15:05:51.254Z,55.30
2017-09-01T15:08:17.276Z,53.00
2017-09-01T15:10:43.317Z,48.80
